sensor_id;sensor_type;location;lat;lon;timestamp;P1;durP1;ratioP1;P2;durP2;ratioP2
21297;SDS011;10808;48.010;11.326;2023-06-22T00:02:14;13.32;;;5.00;;
21297;SDS011;10808;48.010;11.326;2023-06-22T00:04:40;14.95;;;5.22;;
21297;SDS011;10808;48.010;11.326;2023-06-22T00:07:06;13.30;;;5.45;;
21297;SDS011;10808;48.010;11.326;2023-06-22T00:09:32;12.60;;;4.85;;
21297;SDS011;10808;48.010;11.326;2023-06-22T00:11:58;14.85;;;5.10;;
21297;SDS011;10808;48.010;11.326;2023-06-22T00:14:25;11.03;;;5.07;;
21297;SDS011;10808;48.010;11.326;2023-06-22T00:16:51;9.63;;;5.13;;
21297;SDS011;10808;48.010;11.326;2023-06-22T00:19:21;10.15;;;4.85;;
21297;SDS011;10808;48.010;11.326;2023-06-22T00:21:47;15.68;;;5.68;;
21297;SDS011;10808;48.010;11.326;2023-06-22T00:24:18;11.32;;;5.30;;
21297;SDS011;10808;48.010;11.326;2023-06-22T00:26:45;12.38;;;5.47;;
21297;SDS011;10808;48.010;11.326;2023-06-22T00:29:11;10.73;;;5.10;;
21297;SDS011;10808;48.010;11.326;2023-06-22T00:31:37;13.52;;;5.35;;
21297;SDS011;10808;48.010;11.326;2023-06-22T00:34:03;13.57;;;5.18;;
21297;SDS011;10808;48.010;11.326;2023-06-22T00:36:32;13.52;;;5.50;;
21297;SDS011;10808;48.010;11.326;2023-06-22T00:38:58;10.73;;;5.07;;
21297;SDS011;10808;48.010;11.326;2023-06-22T00:41:24;12.03;;;5.03;;
21297;SDS011;10808;48.010;11.326;2023-06-22T00:43:54;13.50;;;5.60;;
21297;SDS011;10808;48.010;11.326;2023-06-22T00:46:20;9.93;;;5.20;;
21297;SDS011;10808;48.010;11.326;2023-06-22T00:48:48;13.85;;;5.10;;
21297;SDS011;10808;48.010;11.326;2023-06-22T00:51:15;11.27;;;5.15;;
21297;SDS011;10808;48.010;11.326;2023-06-22T00:53:41;18.58;;;5.60;;
21297;SDS011;10808;48.010;11.326;2023-06-22T00:56:08;13.90;;;5.60;;
21297;SDS011;10808;48.010;11.326;2023-06-22T00:58:37;13.43;;;5.82;;
21297;SDS011;10808;48.010;11.326;2023-06-22T01:01:07;12.03;;;5.63;;
21297;SDS011;10808;48.010;11.326;2023-06-22T01:03:33;13.90;;;5.63;;
21297;SDS011;10808;48.010;11.326;2023-06-22T01:06:05;15.32;;;6.25;;
21297;SDS011;10808;48.010;11.326;2023-06-22T01:11:22;13.35;;;5.70;;
21297;SDS011;10808;48.010;11.326;2023-06-22T01:14:04;14.23;;;6.40;;
21297;SDS011;10808;48.010;11.326;2023-06-22T01:16:35;12.97;;;5.90;;
21297;SDS011;10808;48.010;11.326;2023-06-22T01:19:09;15.90;;;6.72;;
21297;SDS011;10808;48.010;11.326;2023-06-22T01:21:45;17.42;;;6.30;;
21297;SDS011;10808;48.010;11.326;2023-06-22T01:24:30;15.13;;;6.80;;
21297;SDS011;10808;48.010;11.326;2023-06-22T01:29:34;15.30;;;7.03;;
21297;SDS011;10808;48.010;11.326;2023-06-22T01:32:03;18.48;;;7.90;;
21297;SDS011;10808;48.010;11.326;2023-06-22T01:34:30;17.13;;;7.23;;
21297;SDS011;10808;48.010;11.326;2023-06-22T01:36:57;17.23;;;7.68;;
21297;SDS011;10808;48.010;11.326;2023-06-22T01:39:25;14.35;;;7.75;;
21297;SDS011;10808;48.010;11.326;2023-06-22T01:41:52;18.75;;;8.63;;
21297;SDS011;10808;48.010;11.326;2023-06-22T01:44:19;17.35;;;7.45;;
21297;SDS011;10808;48.010;11.326;2023-06-22T01:46:47;17.33;;;7.70;;
21297;SDS011;10808;48.010;11.326;2023-06-22T01:49:15;15.30;;;7.47;;
21297;SDS011;10808;48.010;11.326;2023-06-22T01:51:41;18.17;;;8.27;;
21297;SDS011;10808;48.010;11.326;2023-06-22T01:54:07;13.32;;;8.05;;
21297;SDS011;10808;48.010;11.326;2023-06-22T01:56:34;19.17;;;7.82;;
21297;SDS011;10808;48.010;11.326;2023-06-22T01:59:11;15.07;;;8.00;;
21297;SDS011;10808;48.010;11.326;2023-06-22T02:01:43;14.25;;;7.35;;
21297;SDS011;10808;48.010;11.326;2023-06-22T02:04:19;14.38;;;7.45;;
21297;SDS011;10808;48.010;11.326;2023-06-22T02:06:49;17.80;;;7.70;;
21297;SDS011;10808;48.010;11.326;2023-06-22T02:09:20;15.60;;;8.17;;
21297;SDS011;10808;48.010;11.326;2023-06-22T02:11:50;14.93;;;7.30;;
21297;SDS011;10808;48.010;11.326;2023-06-22T02:14:20;15.63;;;7.50;;
21297;SDS011;10808;48.010;11.326;2023-06-22T02:16:47;16.65;;;7.50;;
21297;SDS011;10808;48.010;11.326;2023-06-22T02:19:13;17.50;;;8.00;;
21297;SDS011;10808;48.010;11.326;2023-06-22T02:21:44;13.40;;;7.75;;
21297;SDS011;10808;48.010;11.326;2023-06-22T02:24:10;19.95;;;8.10;;
21297;SDS011;10808;48.010;11.326;2023-06-22T02:26:36;16.33;;;8.00;;
21297;SDS011;10808;48.010;11.326;2023-06-22T02:29:05;16.00;;;8.80;;
21297;SDS011;10808;48.010;11.326;2023-06-22T02:31:31;18.80;;;8.63;;
21297;SDS011;10808;48.010;11.326;2023-06-22T02:34:00;14.45;;;7.75;;
21297;SDS011;10808;48.010;11.326;2023-06-22T02:36:26;16.25;;;8.25;;
21297;SDS011;10808;48.010;11.326;2023-06-22T02:38:56;15.32;;;7.47;;
21297;SDS011;10808;48.010;11.326;2023-06-22T02:41:24;13.73;;;8.20;;
21297;SDS011;10808;48.010;11.326;2023-06-22T02:43:50;13.70;;;8.13;;
21297;SDS011;10808;48.010;11.326;2023-06-22T02:46:16;19.08;;;8.07;;
21297;SDS011;10808;48.010;11.326;2023-06-22T02:48:42;13.55;;;7.93;;
21297;SDS011;10808;48.010;11.326;2023-06-22T02:51:08;14.68;;;7.97;;
21297;SDS011;10808;48.010;11.326;2023-06-22T02:53:34;14.60;;;8.15;;
21297;SDS011;10808;48.010;11.326;2023-06-22T02:56:01;15.40;;;8.02;;
21297;SDS011;10808;48.010;11.326;2023-06-22T02:58:31;17.10;;;8.23;;
21297;SDS011;10808;48.010;11.326;2023-06-22T03:01:06;14.55;;;8.23;;
21297;SDS011;10808;48.010;11.326;2023-06-22T03:03:32;15.57;;;7.60;;
21297;SDS011;10808;48.010;11.326;2023-06-22T03:05:59;16.73;;;7.93;;
21297;SDS011;10808;48.010;11.326;2023-06-22T03:08:26;14.40;;;7.38;;
21297;SDS011;10808;48.010;11.326;2023-06-22T03:10:52;14.32;;;8.20;;
21297;SDS011;10808;48.010;11.326;2023-06-22T03:13:18;15.13;;;8.02;;
21297;SDS011;10808;48.010;11.326;2023-06-22T03:15:44;18.13;;;8.05;;
21297;SDS011;10808;48.010;11.326;2023-06-22T03:18:11;19.80;;;8.23;;
21297;SDS011;10808;48.010;11.326;2023-06-22T03:20:37;18.02;;;7.90;;
21297;SDS011;10808;48.010;11.326;2023-06-22T03:23:03;18.80;;;8.73;;
21297;SDS011;10808;48.010;11.326;2023-06-22T03:25:30;14.07;;;7.85;;
21297;SDS011;10808;48.010;11.326;2023-06-22T03:27:56;16.00;;;8.40;;
21297;SDS011;10808;48.010;11.326;2023-06-22T03:30:22;17.08;;;8.10;;
21297;SDS011;10808;48.010;11.326;2023-06-22T03:32:48;15.77;;;7.80;;
21297;SDS011;10808;48.010;11.326;2023-06-22T03:35:14;17.23;;;8.48;;
21297;SDS011;10808;48.010;11.326;2023-06-22T03:37:40;19.17;;;8.38;;
21297;SDS011;10808;48.010;11.326;2023-06-22T03:40:06;20.23;;;7.57;;
21297;SDS011;10808;48.010;11.326;2023-06-22T03:42:33;16.80;;;8.57;;
21297;SDS011;10808;48.010;11.326;2023-06-22T03:45:03;16.00;;;8.23;;
21297;SDS011;10808;48.010;11.326;2023-06-22T03:47:29;18.60;;;8.70;;
21297;SDS011;10808;48.010;11.326;2023-06-22T03:49:55;17.23;;;8.25;;
21297;SDS011;10808;48.010;11.326;2023-06-22T03:52:21;18.67;;;8.30;;
21297;SDS011;10808;48.010;11.326;2023-06-22T03:54:48;15.57;;;7.68;;
21297;SDS011;10808;48.010;11.326;2023-06-22T03:57:14;15.63;;;8.27;;
21297;SDS011;10808;48.010;11.326;2023-06-22T03:59:40;15.07;;;8.38;;
21297;SDS011;10808;48.010;11.326;2023-06-22T04:02:07;13.73;;;7.68;;
21297;SDS011;10808;48.010;11.326;2023-06-22T04:04:34;17.23;;;8.13;;
21297;SDS011;10808;48.010;11.326;2023-06-22T04:07:00;16.02;;;7.40;;
21297;SDS011;10808;48.010;11.326;2023-06-22T04:09:26;16.77;;;8.90;;
21297;SDS011;10808;48.010;11.326;2023-06-22T04:11:52;16.63;;;7.95;;
21297;SDS011;10808;48.010;11.326;2023-06-22T04:14:18;16.98;;;7.70;;
21297;SDS011;10808;48.010;11.326;2023-06-22T04:16:44;14.48;;;8.05;;
21297;SDS011;10808;48.010;11.326;2023-06-22T04:19:10;17.42;;;7.85;;
21297;SDS011;10808;48.010;11.326;2023-06-22T04:28:32;16.05;;;7.50;;
21297;SDS011;10808;48.010;11.326;2023-06-22T04:31:03;14.88;;;8.15;;
21297;SDS011;10808;48.010;11.326;2023-06-22T04:33:30;16.05;;;7.80;;
21297;SDS011;10808;48.010;11.326;2023-06-22T04:35:56;13.73;;;8.13;;
21297;SDS011;10808;48.010;11.326;2023-06-22T04:38:23;15.77;;;7.50;;
21297;SDS011;10808;48.010;11.326;2023-06-22T04:40:50;18.25;;;8.23;;
21297;SDS011;10808;48.010;11.326;2023-06-22T04:43:16;16.30;;;7.82;;
21297;SDS011;10808;48.010;11.326;2023-06-22T04:45:42;19.85;;;8.85;;
21297;SDS011;10808;48.010;11.326;2023-06-22T04:48:08;13.75;;;8.05;;
21297;SDS011;10808;48.010;11.326;2023-06-22T04:50:38;18.27;;;8.05;;
21297;SDS011;10808;48.010;11.326;2023-06-22T04:53:04;17.10;;;7.63;;
21297;SDS011;10808;48.010;11.326;2023-06-22T04:55:31;14.30;;;7.60;;
21297;SDS011;10808;48.010;11.326;2023-06-22T04:57:57;18.55;;;8.52;;
21297;SDS011;10808;48.010;11.326;2023-06-22T05:00:30;14.52;;;8.02;;
21297;SDS011;10808;48.010;11.326;2023-06-22T05:02:56;15.95;;;8.05;;
21297;SDS011;10808;48.010;11.326;2023-06-22T05:05:27;19.40;;;8.35;;
21297;SDS011;10808;48.010;11.326;2023-06-22T05:07:56;17.60;;;7.93;;
21297;SDS011;10808;48.010;11.326;2023-06-22T05:10:25;14.93;;;7.75;;
21297;SDS011;10808;48.010;11.326;2023-06-22T05:12:51;16.03;;;7.93;;
21297;SDS011;10808;48.010;11.326;2023-06-22T05:15:17;18.88;;;8.15;;
21297;SDS011;10808;48.010;11.326;2023-06-22T05:17:48;14.43;;;7.80;;
21297;SDS011;10808;48.010;11.326;2023-06-22T05:20:14;14.60;;;7.75;;
21297;SDS011;10808;48.010;11.326;2023-06-22T05:22:46;17.13;;;7.67;;
21297;SDS011;10808;48.010;11.326;2023-06-22T05:25:12;17.00;;;7.77;;
21297;SDS011;10808;48.010;11.326;2023-06-22T05:27:39;17.98;;;8.68;;
21297;SDS011;10808;48.010;11.326;2023-06-22T05:30:08;13.38;;;7.45;;
21297;SDS011;10808;48.010;11.326;2023-06-22T05:32:44;19.27;;;8.23;;
21297;SDS011;10808;48.010;11.326;2023-06-22T05:38:01;15.88;;;7.53;;
21297;SDS011;10808;48.010;11.326;2023-06-22T05:40:27;13.97;;;7.20;;
21297;SDS011;10808;48.010;11.326;2023-06-22T05:42:53;14.00;;;7.55;;
21297;SDS011;10808;48.010;11.326;2023-06-22T05:45:19;19.25;;;7.60;;
21297;SDS011;10808;48.010;11.326;2023-06-22T05:47:45;14.10;;;7.60;;
21297;SDS011;10808;48.010;11.326;2023-06-22T05:50:11;14.05;;;8.10;;
21297;SDS011;10808;48.010;11.326;2023-06-22T05:52:37;12.45;;;7.45;;
21297;SDS011;10808;48.010;11.326;2023-06-22T05:55:03;17.73;;;7.95;;
21297;SDS011;10808;48.010;11.326;2023-06-22T05:57:29;16.55;;;7.57;;
21297;SDS011;10808;48.010;11.326;2023-06-22T05:59:55;14.50;;;7.53;;
21297;SDS011;10808;48.010;11.326;2023-06-22T06:02:21;14.65;;;7.78;;
21297;SDS011;10808;48.010;11.326;2023-06-22T06:04:47;18.13;;;7.47;;
21297;SDS011;10808;48.010;11.326;2023-06-22T06:07:16;16.17;;;7.55;;
21297;SDS011;10808;48.010;11.326;2023-06-22T06:09:42;16.92;;;7.63;;
21297;SDS011;10808;48.010;11.326;2023-06-22T06:12:08;17.75;;;7.57;;
21297;SDS011;10808;48.010;11.326;2023-06-22T06:14:34;15.95;;;7.35;;
21297;SDS011;10808;48.010;11.326;2023-06-22T06:17:00;13.73;;;7.43;;
21297;SDS011;10808;48.010;11.326;2023-06-22T06:19:26;15.80;;;7.70;;
21297;SDS011;10808;48.010;11.326;2023-06-22T06:21:52;19.27;;;7.90;;
21297;SDS011;10808;48.010;11.326;2023-06-22T06:24:18;15.00;;;7.15;;
21297;SDS011;10808;48.010;11.326;2023-06-22T06:26:44;14.73;;;8.18;;
21297;SDS011;10808;48.010;11.326;2023-06-22T06:29:10;17.13;;;7.82;;
21297;SDS011;10808;48.010;11.326;2023-06-22T06:31:36;15.32;;;7.18;;
21297;SDS011;10808;48.010;11.326;2023-06-22T06:34:02;14.40;;;7.35;;
21297;SDS011;10808;48.010;11.326;2023-06-22T06:36:28;13.53;;;6.83;;
21297;SDS011;10808;48.010;11.326;2023-06-22T06:38:54;15.27;;;7.63;;
21297;SDS011;10808;48.010;11.326;2023-06-22T06:41:21;15.70;;;7.65;;
21297;SDS011;10808;48.010;11.326;2023-06-22T06:43:47;15.98;;;7.60;;
21297;SDS011;10808;48.010;11.326;2023-06-22T06:46:14;18.52;;;7.30;;
21297;SDS011;10808;48.010;11.326;2023-06-22T06:48:40;17.08;;;7.53;;
21297;SDS011;10808;48.010;11.326;2023-06-22T06:51:06;15.50;;;7.32;;
21297;SDS011;10808;48.010;11.326;2023-06-22T06:53:35;16.10;;;6.93;;
21297;SDS011;10808;48.010;11.326;2023-06-22T06:56:03;16.08;;;7.03;;
21297;SDS011;10808;48.010;11.326;2023-06-22T06:58:30;16.58;;;7.78;;
21297;SDS011;10808;48.010;11.326;2023-06-22T07:00:57;14.52;;;7.00;;
21297;SDS011;10808;48.010;11.326;2023-06-22T07:03:23;17.85;;;7.65;;
21297;SDS011;10808;48.010;11.326;2023-06-22T07:05:49;15.30;;;7.45;;
21297;SDS011;10808;48.010;11.326;2023-06-22T07:08:15;22.33;;;7.93;;
21297;SDS011;10808;48.010;11.326;2023-06-22T07:10:41;18.23;;;8.07;;
21297;SDS011;10808;48.010;11.326;2023-06-22T07:13:07;14.00;;;7.30;;
21297;SDS011;10808;48.010;11.326;2023-06-22T07:15:33;17.23;;;7.37;;
21297;SDS011;10808;48.010;11.326;2023-06-22T07:17:59;15.63;;;7.38;;
21297;SDS011;10808;48.010;11.326;2023-06-22T07:20:25;19.77;;;7.20;;
21297;SDS011;10808;48.010;11.326;2023-06-22T07:22:51;16.17;;;7.57;;
21297;SDS011;10808;48.010;11.326;2023-06-22T07:25:17;19.25;;;7.45;;
21297;SDS011;10808;48.010;11.326;2023-06-22T07:27:44;19.48;;;7.20;;
21297;SDS011;10808;48.010;11.326;2023-06-22T07:30:31;17.25;;;6.93;;
21297;SDS011;10808;48.010;11.326;2023-06-22T07:32:59;17.58;;;7.30;;
21297;SDS011;10808;48.010;11.326;2023-06-22T07:35:33;17.97;;;7.50;;
21297;SDS011;10808;48.010;11.326;2023-06-22T07:37:59;17.30;;;7.55;;
21297;SDS011;10808;48.010;11.326;2023-06-22T07:40:25;16.40;;;7.65;;
21297;SDS011;10808;48.010;11.326;2023-06-22T07:42:51;18.60;;;6.95;;
21297;SDS011;10808;48.010;11.326;2023-06-22T07:45:18;15.13;;;7.00;;
21297;SDS011;10808;48.010;11.326;2023-06-22T07:47:44;16.90;;;7.03;;
21297;SDS011;10808;48.010;11.326;2023-06-22T07:50:11;17.23;;;7.80;;
21297;SDS011;10808;48.010;11.326;2023-06-22T07:52:37;20.03;;;7.80;;
21297;SDS011;10808;48.010;11.326;2023-06-22T07:55:03;18.48;;;6.80;;
21297;SDS011;10808;48.010;11.326;2023-06-22T07:57:30;15.18;;;7.15;;
21297;SDS011;10808;48.010;11.326;2023-06-22T08:00:03;20.05;;;7.50;;
21297;SDS011;10808;48.010;11.326;2023-06-22T08:02:40;16.80;;;7.65;;
21297;SDS011;10808;48.010;11.326;2023-06-22T08:05:07;19.60;;;7.68;;
21297;SDS011;10808;48.010;11.326;2023-06-22T08:07:34;16.40;;;7.18;;
21297;SDS011;10808;48.010;11.326;2023-06-22T08:10:03;16.00;;;7.35;;
21297;SDS011;10808;48.010;11.326;2023-06-22T08:12:30;19.77;;;7.63;;
21297;SDS011;10808;48.010;11.326;2023-06-22T08:14:56;18.00;;;6.65;;
21297;SDS011;10808;48.010;11.326;2023-06-22T08:17:23;21.33;;;7.57;;
21297;SDS011;10808;48.010;11.326;2023-06-22T08:19:50;18.07;;;7.33;;
21297;SDS011;10808;48.010;11.326;2023-06-22T08:22:16;20.33;;;7.15;;
21297;SDS011;10808;48.010;11.326;2023-06-22T08:24:43;13.65;;;6.65;;
21297;SDS011;10808;48.010;11.326;2023-06-22T08:27:09;15.88;;;7.13;;
21297;SDS011;10808;48.010;11.326;2023-06-22T08:29:40;18.58;;;7.80;;
21297;SDS011;10808;48.010;11.326;2023-06-22T08:32:14;18.80;;;7.65;;
21297;SDS011;10808;48.010;11.326;2023-06-22T08:34:40;18.83;;;7.60;;
21297;SDS011;10808;48.010;11.326;2023-06-22T08:37:08;17.08;;;6.93;;
21297;SDS011;10808;48.010;11.326;2023-06-22T08:39:34;18.25;;;7.47;;
21297;SDS011;10808;48.010;11.326;2023-06-22T08:42:00;14.88;;;7.32;;
21297;SDS011;10808;48.010;11.326;2023-06-22T08:44:26;16.47;;;7.57;;
21297;SDS011;10808;48.010;11.326;2023-06-22T08:46:52;16.05;;;7.72;;
21297;SDS011;10808;48.010;11.326;2023-06-22T08:49:18;14.50;;;6.80;;
21297;SDS011;10808;48.010;11.326;2023-06-22T08:51:44;17.35;;;7.50;;
21297;SDS011;10808;48.010;11.326;2023-06-22T08:54:13;17.90;;;7.70;;
21297;SDS011;10808;48.010;11.326;2023-06-22T08:56:39;17.88;;;7.18;;
21297;SDS011;10808;48.010;11.326;2023-06-22T08:59:05;15.65;;;7.50;;
21297;SDS011;10808;48.010;11.326;2023-06-22T09:01:33;17.15;;;7.55;;
21297;SDS011;10808;48.010;11.326;2023-06-22T09:03:59;17.35;;;7.57;;
21297;SDS011;10808;48.010;11.326;2023-06-22T09:06:25;16.05;;;7.60;;
21297;SDS011;10808;48.010;11.326;2023-06-22T09:08:51;15.97;;;6.80;;
21297;SDS011;10808;48.010;11.326;2023-06-22T09:11:17;14.57;;;7.47;;
21297;SDS011;10808;48.010;11.326;2023-06-22T09:13:43;18.73;;;7.22;;
21297;SDS011;10808;48.010;11.326;2023-06-22T09:16:10;17.08;;;7.43;;
21297;SDS011;10808;48.010;11.326;2023-06-22T09:18:37;16.17;;;7.28;;
21297;SDS011;10808;48.010;11.326;2023-06-22T09:21:03;19.35;;;8.05;;
21297;SDS011;10808;48.010;11.326;2023-06-22T09:23:29;16.77;;;7.00;;
21297;SDS011;10808;48.010;11.326;2023-06-22T09:25:55;14.90;;;7.38;;
21297;SDS011;10808;48.010;11.326;2023-06-22T09:28:21;19.40;;;7.65;;
21297;SDS011;10808;48.010;11.326;2023-06-22T09:34:01;17.13;;;7.40;;
21297;SDS011;10808;48.010;11.326;2023-06-22T09:36:27;15.43;;;7.32;;
21297;SDS011;10808;48.010;11.326;2023-06-22T09:38:53;18.63;;;7.40;;
21297;SDS011;10808;48.010;11.326;2023-06-22T09:41:24;14.55;;;6.93;;
21297;SDS011;10808;48.010;11.326;2023-06-22T09:43:50;18.80;;;7.13;;
21297;SDS011;10808;48.010;11.326;2023-06-22T09:46:16;16.85;;;7.38;;
21297;SDS011;10808;48.010;11.326;2023-06-22T09:48:43;14.50;;;7.15;;
21297;SDS011;10808;48.010;11.326;2023-06-22T09:51:09;15.90;;;7.23;;
21297;SDS011;10808;48.010;11.326;2023-06-22T09:53:35;16.67;;;6.80;;
21297;SDS011;10808;48.010;11.326;2023-06-22T09:56:02;16.15;;;7.00;;
21297;SDS011;10808;48.010;11.326;2023-06-22T09:58:28;20.75;;;7.75;;
21297;SDS011;10808;48.010;11.326;2023-06-22T10:04:15;21.33;;;7.25;;
21297;SDS011;10808;48.010;11.326;2023-06-22T10:06:41;19.03;;;7.63;;
21297;SDS011;10808;48.010;11.326;2023-06-22T10:09:07;17.85;;;7.72;;
21297;SDS011;10808;48.010;11.326;2023-06-22T10:11:33;19.30;;;7.75;;
21297;SDS011;10808;48.010;11.326;2023-06-22T10:14:00;18.83;;;7.25;;
21297;SDS011;10808;48.010;11.326;2023-06-22T10:16:30;16.73;;;7.47;;
21297;SDS011;10808;48.010;11.326;2023-06-22T10:18:57;19.00;;;7.20;;
21297;SDS011;10808;48.010;11.326;2023-06-22T10:21:23;15.27;;;6.97;;
21297;SDS011;10808;48.010;11.326;2023-06-22T10:23:49;20.33;;;7.82;;
21297;SDS011;10808;48.010;11.326;2023-06-22T10:26:15;19.95;;;7.78;;
21297;SDS011;10808;48.010;11.326;2023-06-22T10:28:41;20.38;;;7.72;;
21297;SDS011;10808;48.010;11.326;2023-06-22T10:31:07;16.90;;;7.07;;
21297;SDS011;10808;48.010;11.326;2023-06-22T10:33:34;20.42;;;7.75;;
21297;SDS011;10808;48.010;11.326;2023-06-22T10:36:00;16.90;;;7.05;;
21297;SDS011;10808;48.010;11.326;2023-06-22T10:38:26;17.25;;;7.18;;
21297;SDS011;10808;48.010;11.326;2023-06-22T10:40:52;20.02;;;7.50;;
21297;SDS011;10808;48.010;11.326;2023-06-22T10:43:18;18.30;;;6.95;;
21297;SDS011;10808;48.010;11.326;2023-06-22T10:45:45;18.55;;;6.78;;
21297;SDS011;10808;48.010;11.326;2023-06-22T10:48:11;21.92;;;7.88;;
21297;SDS011;10808;48.010;11.326;2023-06-22T10:50:37;18.15;;;7.15;;
21297;SDS011;10808;48.010;11.326;2023-06-22T10:53:03;15.73;;;6.77;;
21297;SDS011;10808;48.010;11.326;2023-06-22T10:55:29;20.55;;;6.93;;
21297;SDS011;10808;48.010;11.326;2023-06-22T10:57:55;17.50;;;6.72;;
21297;SDS011;10808;48.010;11.326;2023-06-22T11:00:21;20.77;;;7.32;;
21297;SDS011;10808;48.010;11.326;2023-06-22T11:02:47;22.63;;;7.65;;
21297;SDS011;10808;48.010;11.326;2023-06-22T11:05:13;16.95;;;6.90;;
21297;SDS011;10808;48.010;11.326;2023-06-22T11:07:43;17.42;;;7.47;;
21297;SDS011;10808;48.010;11.326;2023-06-22T11:10:10;22.08;;;7.32;;
21297;SDS011;10808;48.010;11.326;2023-06-22T11:12:37;19.13;;;7.40;;
21297;SDS011;10808;48.010;11.326;2023-06-22T11:15:03;17.13;;;6.68;;
21297;SDS011;10808;48.010;11.326;2023-06-22T11:17:30;19.73;;;7.80;;
21297;SDS011;10808;48.010;11.326;2023-06-22T11:19:56;17.83;;;7.57;;
21297;SDS011;10808;48.010;11.326;2023-06-22T11:22:22;21.08;;;7.68;;
21297;SDS011;10808;48.010;11.326;2023-06-22T11:24:48;18.65;;;7.50;;
21297;SDS011;10808;48.010;11.326;2023-06-22T11:27:15;16.95;;;6.55;;
21297;SDS011;10808;48.010;11.326;2023-06-22T11:29:41;18.55;;;6.95;;
21297;SDS011;10808;48.010;11.326;2023-06-22T11:32:07;18.23;;;7.13;;
21297;SDS011;10808;48.010;11.326;2023-06-22T11:34:33;18.20;;;7.03;;
21297;SDS011;10808;48.010;11.326;2023-06-22T11:36:59;25.23;;;7.60;;
21297;SDS011;10808;48.010;11.326;2023-06-22T11:39:26;20.33;;;7.45;;
21297;SDS011;10808;48.010;11.326;2023-06-22T11:41:52;19.67;;;7.18;;
21297;SDS011;10808;48.010;11.326;2023-06-22T11:44:18;21.00;;;7.10;;
21297;SDS011;10808;48.010;11.326;2023-06-22T11:46:44;16.83;;;6.28;;
21297;SDS011;10808;48.010;11.326;2023-06-22T11:49:10;21.20;;;7.13;;
21297;SDS011;10808;48.010;11.326;2023-06-22T11:51:36;16.10;;;6.77;;
21297;SDS011;10808;48.010;11.326;2023-06-22T11:54:02;18.27;;;7.03;;
21297;SDS011;10808;48.010;11.326;2023-06-22T11:56:28;24.53;;;7.33;;
21297;SDS011;10808;48.010;11.326;2023-06-22T12:02:05;17.30;;;6.77;;
21297;SDS011;10808;48.010;11.326;2023-06-22T12:04:32;21.35;;;6.95;;
21297;SDS011;10808;48.010;11.326;2023-06-22T12:06:58;16.13;;;6.20;;
21297;SDS011;10808;48.010;11.326;2023-06-22T12:09:25;15.80;;;6.40;;
21297;SDS011;10808;48.010;11.326;2023-06-22T12:11:51;16.75;;;6.68;;
21297;SDS011;10808;48.010;11.326;2023-06-22T12:14:17;19.42;;;7.03;;
21297;SDS011;10808;48.010;11.326;2023-06-22T12:16:43;22.50;;;6.82;;
21297;SDS011;10808;48.010;11.326;2023-06-22T12:19:09;21.20;;;6.50;;
21297;SDS011;10808;48.010;11.326;2023-06-22T12:21:37;19.35;;;6.32;;
21297;SDS011;10808;48.010;11.326;2023-06-22T12:24:03;24.05;;;6.85;;
21297;SDS011;10808;48.010;11.326;2023-06-22T12:26:29;19.13;;;6.70;;
21297;SDS011;10808;48.010;11.326;2023-06-22T12:28:55;17.92;;;6.45;;
21297;SDS011;10808;48.010;11.326;2023-06-22T12:31:21;26.23;;;6.88;;
21297;SDS011;10808;48.010;11.326;2023-06-22T12:33:48;25.88;;;7.00;;
21297;SDS011;10808;48.010;11.326;2023-06-22T12:36:14;21.20;;;6.78;;
21297;SDS011;10808;48.010;11.326;2023-06-22T12:38:59;21.95;;;7.93;;
21297;SDS011;10808;48.010;11.326;2023-06-22T12:41:25;23.25;;;7.30;;
21297;SDS011;10808;48.010;11.326;2023-06-22T12:43:51;22.48;;;6.70;;
21297;SDS011;10808;48.010;11.326;2023-06-22T12:46:17;24.45;;;6.55;;
21297;SDS011;10808;48.010;11.326;2023-06-22T12:48:43;17.75;;;6.57;;
21297;SDS011;10808;48.010;11.326;2023-06-22T12:51:09;23.38;;;6.75;;
21297;SDS011;10808;48.010;11.326;2023-06-22T12:53:35;20.77;;;6.97;;
21297;SDS011;10808;48.010;11.326;2023-06-22T12:56:01;20.52;;;7.20;;
21297;SDS011;10808;48.010;11.326;2023-06-22T12:58:27;25.27;;;6.77;;
21297;SDS011;10808;48.010;11.326;2023-06-22T13:00:53;21.88;;;6.80;;
21297;SDS011;10808;48.010;11.326;2023-06-22T13:03:19;20.60;;;6.80;;
21297;SDS011;10808;48.010;11.326;2023-06-22T13:05:45;18.97;;;6.33;;
21297;SDS011;10808;48.010;11.326;2023-06-22T13:08:11;20.52;;;5.97;;
21297;SDS011;10808;48.010;11.326;2023-06-22T13:10:39;22.65;;;6.93;;
21297;SDS011;10808;48.010;11.326;2023-06-22T13:13:05;17.23;;;6.20;;
21297;SDS011;10808;48.010;11.326;2023-06-22T13:15:31;18.80;;;6.43;;
21297;SDS011;10808;48.010;11.326;2023-06-22T13:17:57;21.35;;;6.68;;
21297;SDS011;10808;48.010;11.326;2023-06-22T13:20:23;18.38;;;6.65;;
21297;SDS011;10808;48.010;11.326;2023-06-22T13:22:49;19.95;;;6.78;;
21297;SDS011;10808;48.010;11.326;2023-06-22T13:25:15;25.83;;;6.53;;
21297;SDS011;10808;48.010;11.326;2023-06-22T13:27:44;21.43;;;7.17;;
21297;SDS011;10808;48.010;11.326;2023-06-22T13:30:10;20.48;;;7.32;;
21297;SDS011;10808;48.010;11.326;2023-06-22T13:32:36;16.50;;;6.57;;
21297;SDS011;10808;48.010;11.326;2023-06-22T13:35:02;20.08;;;7.05;;
21297;SDS011;10808;48.010;11.326;2023-06-22T13:37:29;18.20;;;7.13;;
21297;SDS011;10808;48.010;11.326;2023-06-22T13:39:55;22.83;;;7.50;;
21297;SDS011;10808;48.010;11.326;2023-06-22T13:42:21;19.38;;;7.15;;
21297;SDS011;10808;48.010;11.326;2023-06-22T13:44:47;23.40;;;7.40;;
21297;SDS011;10808;48.010;11.326;2023-06-22T13:47:13;16.48;;;7.20;;
21297;SDS011;10808;48.010;11.326;2023-06-22T13:49:39;27.02;;;7.35;;
21297;SDS011;10808;48.010;11.326;2023-06-22T13:52:05;21.88;;;7.28;;
21297;SDS011;10808;48.010;11.326;2023-06-22T13:54:35;18.95;;;6.80;;
21297;SDS011;10808;48.010;11.326;2023-06-22T13:57:02;21.40;;;6.85;;
21297;SDS011;10808;48.010;11.326;2023-06-22T13:59:28;19.75;;;7.28;;
21297;SDS011;10808;48.010;11.326;2023-06-22T14:01:54;20.90;;;6.78;;
21297;SDS011;10808;48.010;11.326;2023-06-22T14:04:21;17.50;;;7.18;;
21297;SDS011;10808;48.010;11.326;2023-06-22T14:06:50;19.77;;;6.60;;
21297;SDS011;10808;48.010;11.326;2023-06-22T14:09:16;19.05;;;6.78;;
21297;SDS011;10808;48.010;11.326;2023-06-22T14:11:42;20.20;;;6.82;;
21297;SDS011;10808;48.010;11.326;2023-06-22T14:14:08;16.20;;;6.60;;
21297;SDS011;10808;48.010;11.326;2023-06-22T14:16:35;17.63;;;6.63;;
21297;SDS011;10808;48.010;11.326;2023-06-22T14:19:01;19.85;;;6.88;;
21297;SDS011;10808;48.010;11.326;2023-06-22T14:21:27;12.98;;;6.53;;
21297;SDS011;10808;48.010;11.326;2023-06-22T14:23:53;18.85;;;6.90;;
21297;SDS011;10808;48.010;11.326;2023-06-22T14:26:19;17.73;;;6.73;;
21297;SDS011;10808;48.010;11.326;2023-06-22T14:28:45;16.92;;;6.47;;
21297;SDS011;10808;48.010;11.326;2023-06-22T14:31:15;15.30;;;6.50;;
21297;SDS011;10808;48.010;11.326;2023-06-22T14:33:48;18.83;;;6.93;;
21297;SDS011;10808;48.010;11.326;2023-06-22T14:36:15;19.35;;;6.95;;
21297;SDS011;10808;48.010;11.326;2023-06-22T14:38:43;14.55;;;6.63;;
21297;SDS011;10808;48.010;11.326;2023-06-22T14:41:09;15.90;;;6.55;;
21297;SDS011;10808;48.010;11.326;2023-06-22T14:43:35;18.58;;;6.35;;
21297;SDS011;10808;48.010;11.326;2023-06-22T14:46:01;13.40;;;6.18;;